createdAt,value
2019-06-26T00:00:42.778Z,11.35
2019-06-26T00:05:48.302Z,10.88
2019-06-26T00:10:53.823Z,10.75
2019-06-26T00:15:59.339Z,11.38
2019-06-26T00:21:04.856Z,11.15
2019-06-26T00:26:10.299Z,11.45
2019-06-26T00:31:15.744Z,10.40
2019-06-26T00:36:21.251Z,10.60
2019-06-26T00:41:26.861Z,10.98
2019-06-26T00:46:32.513Z,10.98
2019-06-26T00:51:38.062Z,10.82
2019-06-26T00:56:43.515Z,10.35
2019-06-26T01:01:49.127Z,10.55
2019-06-26T01:06:54.646Z,10.35
2019-06-26T01:12:00.175Z,11.63
2019-06-26T01:17:05.766Z,12.75
2019-06-26T01:22:11.380Z,10.88
2019-06-26T01:27:16.860Z,12.47
2019-06-26T01:32:22.390Z,14.85
2019-06-26T01:37:27.834Z,11.43
2019-06-26T01:42:33.283Z,13.58
2019-06-26T01:47:38.793Z,13.40
2019-06-26T01:52:44.398Z,13.05
2019-06-26T01:57:49.841Z,12.85
2019-06-26T02:02:55.455Z,11.80
2019-06-26T02:08:00.971Z,14.45
2019-06-26T02:13:06.560Z,13.30
2019-06-26T02:18:29.586Z,12.78
2019-06-26T02:23:35.115Z,12.80
2019-06-26T02:28:40.581Z,12.85
2019-06-26T02:33:46.027Z,13.15
2019-06-26T02:38:51.496Z,13.08
2019-06-26T02:43:57.005Z,13.55
2019-06-26T02:49:02.461Z,12.90
2019-06-26T02:54:08.000Z,12.73
2019-06-26T02:59:13.435Z,13.32
2019-06-26T03:04:18.901Z,14.80
2019-06-26T03:09:24.401Z,13.58
2019-06-26T03:14:29.904Z,13.13
2019-06-26T03:19:35.411Z,13.25
2019-06-26T03:24:40.939Z,14.30
2019-06-26T03:29:46.866Z,11.95
2019-06-26T03:34:52.437Z,14.18
2019-06-26T03:39:57.980Z,15.30
2019-06-26T03:45:04.727Z,17.87
2019-06-26T03:50:10.383Z,18.75
2019-06-26T03:55:16.472Z,14.70
2019-06-26T04:00:40.619Z,16.30
2019-06-26T04:05:46.513Z,17.32
2019-06-26T04:10:52.001Z,17.75
2019-06-26T04:15:57.537Z,16.17
2019-06-26T04:21:03.150Z,15.05
2019-06-26T04:26:08.683Z,15.55
2019-06-26T04:31:14.148Z,19.37
2019-06-26T04:36:19.695Z,17.17
2019-06-26T04:41:25.250Z,16.73
2019-06-26T04:46:30.735Z,15.65
2019-06-26T04:51:36.278Z,24.60
2019-06-26T04:56:41.770Z,24.63
2019-06-26T05:01:47.245Z,36.50
2019-06-26T05:06:52.793Z,29.75
2019-06-26T05:11:58.300Z,30.00
2019-06-26T05:17:03.873Z,29.57
2019-06-26T05:22:09.395Z,27.62
2019-06-26T05:27:14.882Z,32.40
2019-06-26T05:32:20.399Z,24.57
2019-06-26T05:37:25.942Z,25.77
2019-06-26T05:42:31.408Z,25.50
2019-06-26T05:47:36.950Z,22.77
2019-06-26T05:52:43.271Z,25.17
2019-06-26T05:57:48.824Z,22.73
2019-06-26T06:02:54.364Z,21.33
2019-06-26T06:07:59.808Z,18.52
2019-06-26T06:13:05.364Z,20.55
2019-06-26T06:18:10.949Z,16.67
2019-06-26T06:23:18.094Z,21.82
2019-06-26T06:28:23.768Z,16.70
2019-06-26T06:33:29.249Z,22.42
2019-06-26T06:38:34.737Z,18.10
2019-06-26T06:43:40.269Z,15.40
2019-06-26T06:48:45.755Z,16.50
2019-06-26T06:53:51.196Z,18.15
2019-06-26T06:58:56.642Z,16.55
2019-06-26T07:04:02.217Z,15.38
2019-06-26T07:09:08.034Z,14.50
2019-06-26T07:14:13.501Z,18.70
2019-06-26T07:19:19.038Z,18.15
2019-06-26T07:24:24.517Z,14.68
2019-06-26T07:29:30.105Z,17.60
2019-06-26T07:34:35.722Z,14.93
2019-06-26T07:39:41.224Z,15.63
2019-06-26T07:44:46.746Z,14.58
2019-06-26T07:49:52.194Z,15.45
2019-06-26T07:54:57.644Z,13.58
2019-06-26T08:00:03.146Z,13.13
2019-06-26T08:05:10.544Z,12.37
2019-06-26T08:10:16.017Z,14.13
2019-06-26T08:15:21.505Z,11.50
2019-06-26T08:20:26.965Z,13.30
2019-06-26T08:25:32.417Z,10.93
2019-06-26T08:30:37.897Z,12.68
2019-06-26T08:35:43.373Z,11.25
2019-06-26T08:40:48.899Z,10.85
2019-06-26T08:45:54.362Z,11.18
2019-06-26T08:51:00.947Z,10.80
2019-06-26T08:56:06.453Z,11.60
2019-06-26T09:01:11.924Z,10.85
2019-06-26T09:06:17.395Z,10.63
2019-06-26T09:11:22.986Z,11.05
2019-06-26T09:16:28.544Z,10.72
2019-06-26T09:21:34.016Z,9.53
2019-06-26T09:26:39.485Z,9.93
2019-06-26T09:31:44.965Z,10.00
2019-06-26T09:36:50.429Z,10.15
2019-06-26T09:41:55.910Z,9.40
2019-06-26T09:47:01.537Z,9.78
2019-06-26T09:52:07.149Z,8.60
2019-06-26T09:57:12.695Z,10.15
2019-06-26T10:07:43.470Z,9.85
2019-06-26T10:12:48.919Z,9.00
2019-06-26T10:17:54.358Z,9.53
2019-06-26T10:22:59.911Z,9.73
2019-06-26T10:28:05.423Z,9.73
2019-06-26T10:33:10.949Z,10.18
2019-06-26T10:38:16.381Z,9.48
2019-06-26T10:43:21.927Z,8.88
2019-06-26T10:48:27.399Z,9.10
2019-06-26T10:53:32.828Z,9.38
2019-06-26T10:58:38.342Z,8.60
2019-06-26T11:03:43.842Z,8.75
2019-06-26T11:08:49.288Z,9.48
2019-06-26T11:13:54.821Z,9.30
2019-06-26T11:19:00.344Z,9.43
2019-06-26T11:24:05.781Z,9.13
2019-06-26T11:29:11.223Z,9.10
2019-06-26T11:34:16.762Z,9.63
2019-06-26T11:39:22.252Z,8.40
2019-06-26T11:44:27.731Z,8.45
2019-06-26T11:49:33.188Z,9.05
2019-06-26T11:54:38.638Z,8.23
2019-06-26T11:59:44.159Z,8.23
2019-06-26T12:04:49.638Z,8.58
2019-06-26T12:09:55.318Z,8.15
2019-06-26T12:15:00.818Z,8.28
2019-06-26T12:20:18.087Z,7.55
2019-06-26T12:25:14.205Z,7.67
2019-06-26T12:30:19.750Z,9.38
2019-06-26T12:35:25.239Z,8.80
2019-06-26T12:40:31.496Z,8.43
2019-06-26T12:45:37.082Z,7.80
2019-06-26T12:50:42.608Z,8.00
2019-06-26T12:55:48.047Z,7.80
2019-06-26T13:00:53.541Z,9.28
2019-06-26T13:05:59.008Z,8.00
2019-06-26T13:11:04.560Z,9.33
2019-06-26T13:16:09.995Z,7.17
2019-06-26T13:21:15.471Z,8.95
2019-06-26T13:26:21.136Z,8.73
2019-06-26T13:31:26.640Z,8.20
2019-06-26T13:36:32.174Z,8.15
2019-06-26T13:41:37.758Z,8.33
2019-06-26T13:46:43.223Z,8.40
2019-06-26T13:51:49.138Z,8.35
2019-06-26T13:56:54.613Z,8.85
2019-06-26T14:02:00.060Z,8.60
2019-06-26T14:07:08.527Z,9.23
2019-06-26T14:12:12.711Z,9.03
2019-06-26T14:17:18.144Z,9.85
2019-06-26T14:22:23.576Z,8.53
2019-06-26T14:27:29.032Z,10.28
2019-06-26T14:32:34.464Z,10.25
2019-06-26T14:37:39.890Z,8.88
2019-06-26T14:42:45.372Z,11.03
2019-06-26T14:47:50.867Z,8.75
2019-06-26T14:52:56.294Z,13.45
2019-06-26T14:58:01.733Z,10.75
2019-06-26T15:03:07.188Z,12.88
2019-06-26T15:08:12.699Z,10.60
2019-06-26T15:13:18.228Z,12.20
2019-06-26T15:18:23.682Z,10.35
2019-06-26T15:23:29.135Z,12.43
2019-06-26T15:28:34.658Z,12.58
2019-06-26T15:33:40.105Z,9.55
2019-06-26T15:38:45.558Z,9.30
2019-06-26T15:43:51.092Z,10.48
2019-06-26T15:48:56.546Z,11.80
2019-06-26T15:54:02.130Z,12.98
2019-06-26T15:59:07.565Z,15.48
2019-06-26T16:04:13.024Z,20.10
2019-06-26T16:09:18.465Z,23.20
2019-06-26T16:14:23.985Z,25.60
2019-06-26T16:19:31.092Z,23.12
2019-06-26T16:24:36.737Z,23.67
2019-06-26T16:29:42.624Z,21.27
2019-06-26T16:34:48.348Z,22.42
2019-06-26T16:39:54.151Z,21.05
2019-06-26T16:44:59.596Z,22.98
2019-06-26T16:50:06.484Z,19.80
2019-06-26T16:55:12.010Z,21.15
2019-06-26T17:00:18.984Z,16.95
2019-06-26T17:05:24.493Z,20.23
2019-06-26T17:10:30.022Z,18.07
2019-06-26T17:15:35.746Z,16.82
2019-06-26T17:20:41.452Z,20.27
2019-06-26T17:25:46.964Z,15.05
2019-06-26T17:30:53.040Z,15.85
2019-06-26T17:35:58.618Z,16.15
2019-06-26T17:41:04.137Z,21.48
2019-06-26T17:46:09.669Z,15.88
2019-06-26T17:51:15.170Z,18.35
2019-06-26T17:56:20.672Z,18.27
2019-06-26T18:01:26.263Z,19.15
2019-06-26T18:06:31.794Z,19.10
2019-06-26T18:11:37.446Z,14.98
2019-06-26T18:16:42.947Z,16.15
2019-06-26T18:21:48.420Z,19.02
2019-06-26T18:26:53.882Z,19.32
2019-06-26T18:31:59.392Z,19.42
2019-06-26T18:37:04.917Z,15.93
2019-06-26T18:42:10.638Z,15.20
2019-06-26T18:47:17.768Z,18.65
2019-06-26T18:52:23.388Z,17.42
2019-06-26T18:57:28.857Z,17.98
2019-06-26T19:02:34.333Z,18.45
2019-06-26T19:07:39.817Z,21.00
2019-06-26T19:12:45.294Z,16.00
2019-06-26T19:17:50.786Z,20.17
2019-06-26T19:22:56.346Z,17.37
2019-06-26T19:28:01.843Z,20.10
2019-06-26T19:33:07.341Z,16.12
2019-06-26T19:38:12.969Z,17.52
2019-06-26T19:43:18.542Z,15.75
2019-06-26T19:48:24.086Z,16.25
2019-06-26T19:53:29.583Z,15.50
2019-06-26T19:58:35.051Z,18.12
2019-06-26T20:03:40.606Z,15.90
2019-06-26T20:08:54.562Z,14.55
2019-06-26T20:13:53.293Z,16.90
2019-06-26T20:18:58.766Z,16.27
2019-06-26T20:24:04.299Z,18.52
2019-06-26T20:29:09.786Z,16.25
2019-06-26T20:34:15.243Z,16.55
2019-06-26T20:39:20.805Z,17.15
2019-06-26T20:44:26.384Z,15.03
2019-06-26T20:49:31.924Z,15.60
2019-06-26T20:54:37.393Z,16.17
2019-06-26T20:59:42.896Z,20.37
2019-06-26T21:04:48.383Z,16.62
2019-06-26T21:09:54.010Z,14.90
2019-06-26T21:14:59.502Z,14.10
2019-06-26T21:20:06.376Z,15.45
2019-06-26T21:25:19.073Z,14.70
2019-06-26T21:30:20.246Z,18.35
2019-06-26T21:35:25.875Z,14.90
2019-06-26T21:40:31.316Z,14.98
2019-06-26T21:45:36.760Z,14.13
2019-06-26T21:50:42.224Z,14.23
2019-06-26T21:55:47.660Z,16.52
2019-06-26T22:01:10.594Z,15.13
2019-06-26T22:12:04.735Z,14.47
2019-06-26T22:17:10.366Z,14.93
2019-06-26T22:22:16.018Z,14.53
2019-06-26T22:27:21.571Z,13.40
2019-06-26T22:32:27.130Z,16.10
2019-06-26T22:37:32.677Z,14.50
2019-06-26T22:42:38.241Z,14.50
2019-06-26T22:47:43.677Z,14.03
2019-06-26T22:52:50.226Z,14.70
2019-06-26T22:57:55.700Z,15.80
2019-06-26T23:03:01.182Z,12.63
2019-06-26T23:08:06.835Z,13.68
2019-06-26T23:13:12.455Z,13.32
2019-06-26T23:18:17.919Z,12.80
2019-06-26T23:23:23.426Z,12.82
2019-06-26T23:28:28.896Z,13.13
2019-06-26T23:33:34.353Z,14.23
2019-06-26T23:38:39.915Z,12.68
2019-06-26T23:43:45.374Z,12.20
2019-06-26T23:48:50.863Z,14.10
2019-06-26T23:53:56.334Z,12.47
2019-06-26T23:59:01.826Z,12.47
